This is the latest recevied weather packets stored in our database for station/object DL4MGC-10. If no packets are shown the sender has not sent any weather packets the latest 10 day(s).
| Time | Temp. | Humidity | Pressure | Rain* | Wind** | Luminosity | Snow |
|---|---|---|---|---|---|---|---|
| 1777956874 | 11.67° C | 87% | 1009.7 hPa | - | - | - | - |
| 1777955974 | 12.22° C | 85% | 1009.8 hPa | - | - | - | - |
| 1777955074 | 11.11° C | 87% | 1009.8 hPa | - | - | - | - |
| 1777954173 | 11.67° C | 86% | 1009.8 hPa | - | - | - | - |
| 1777953273 | 12.22° C | 84% | 1009.6 hPa | - | - | - | - |
| 1777952373 | 12.78° C | 82% | 1009.6 hPa | - | - | - | - |
| 1777951473 | 12.22° C | 85% | 1009.8 hPa | - | - | - | - |
| 1777950573 | 12.22° C | 84% | 1009.9 hPa | - | - | - | - |
| 1777949673 | 12.78° C | 83% | 1010.1 hPa | - | - | - | - |
| 1777948773 | 13.33° C | 81% | 1010.1 hPa | - | - | - | - |
| 1777947872 | 13.89° C | 80% | 1010.4 hPa | - | - | - | - |
| 1777946972 | 14.44° C | 79% | 1010.5 hPa | - | - | - | - |
| 1777946072 | 14.44° C | 78% | 1010.7 hPa | - | - | - | - |
| 1777945172 | 14.44° C | 80% | 1010.7 hPa | - | - | - | - |
| 1777944272 | 15° C | 78% | 1010.6 hPa | - | - | - | - |
| 1777943372 | 15° C | 78% | 1010.6 hPa | - | - | - | - |
| 1777942471 | 15.56° C | 77% | 1010.7 hPa | - | - | - | - |
| 1777941571 | 15.56° C | 80% | 1010.7 hPa | - | - | - | - |
| 1777940671 | 16.11° C | 76% | 1010.8 hPa | - | - | - | - |
| 1777939771 | 16.67° C | 73% | 1010.8 hPa | - | - | - | - |
| 1777938871 | 16.67° C | 74% | 1011 hPa | - | - | - | - |
| 1777937971 | 17.22° C | 72% | 1011 hPa | - | - | - | - |
| 1777937071 | 16.67° C | 73% | 1011.1 hPa | - | - | - | - |
| 1777936171 | 16.67° C | 71% | 1011.2 hPa | - | - | - | - |
| 1777935271 | 16.67° C | 70% | 1011.3 hPa | - | - | - | - |
* Rain since midnight (hover to see other rain measurements)
** Current wind speed in m/s (hover to see current wind gust speed)